Time;durP1;ratioP1;P1;durP2;ratioP2;P2;SDS_P1;SDS_P2;PMS_P1;PMS_P2;Temp;Humidity;BMP_temperature;BMP_pressure;BME280_temperature;BME280_humidity;BME280_pressure;Samples;Min_cycle;Max_cycle;Signal;HPM_P1;HPM_P2
2023/09/28 05:19:32;;;;;;;;;;;;;;;;;;5032605;28;20358;-47
2023/09/28 05:21:58;;;;;;;;;;;;;;;;;;5033026;28;19949;-48
2023/09/28 05:24:24;;;;;;;;;;;;;;;;;;5036015;28;19963;-49
2023/09/28 05:26:50;;;;;;;;;;;;;;;;;;5052532;28;19928;-46
2023/09/28 05:29:16;;;;;;;;;;;;;;;;;;5053017;28;19931;-47
2023/09/28 05:31:42;;;;;;;;;;;;;;;;;;5052274;28;19908;-48
2023/09/28 05:34:07;;;;;;;;;;;;;;;;;;5052746;28;19913;-50
2023/09/28 05:36:33;;;;;;;;;;;;;;;;;;5051700;28;19913;-47
2023/09/28 05:38:59;;;;;;;;;;;;;;;;;;5052411;28;20398;-48
2023/09/28 05:41:25;;;;;;;;;;;;;;;;;;5051634;28;19908;-49
2023/09/28 05:43:51;;;;;;;;;;;;;;;;;;5051781;28;20126;-49
2023/09/28 05:46:17;;;;;;;;;;;;;;;;;;5052165;28;19908;-47
2023/09/28 05:48:43;;;;;;;;;;;;;;;;;;5052860;28;19960;-46
2023/09/28 05:51:09;;;;;;;;;;;;;;;;;;5052016;28;19979;-49
2023/09/28 05:53:35;;;;;;;;;;;;;;;;;;5051827;28;19916;-48
2023/09/28 05:56:04;;;;;;;;;;;;;;;;;;5051388;28;19917;-49
2023/09/28 05:58:30;;;;;;;;;;;;;;;;;;5052114;28;20615;-50
2023/09/28 06:00:57;;;;;;;;;;;;;;;;;;5051266;28;19909;-50
2023/09/28 06:03:23;;;;;;;;;;;;;;;;;;5052015;28;20000;-48
2023/09/28 06:05:49;;;;;;;;;;;;;;;;;;5051885;28;20004;-49
2023/09/28 06:08:14;;;;;;;;;;;;;;;;;;5051720;28;20460;-47
2023/09/28 06:10:40;;;;;;;;;;;;;;;;;;5051917;28;19955;-49
2023/09/28 06:13:06;;;;;;;;;;;;;;;;;;5053005;28;19944;-47
2023/09/28 06:15:32;;;;;;;;;;;;;;;;;;5053052;28;19913;-47
2023/09/28 06:17:58;;;;;;;;;;;;;;;;;;5051923;28;20383;-50
2023/09/28 06:20:24;;;;;;;;;;;;;;;;;;5052644;28;19952;-50
2023/09/28 06:22:50;;;;;;;;;;;;;;;;;;5053087;28;19905;-46
2023/09/28 06:25:16;;;;;;;;;;;;;;;;;;5052894;28;19916;-46
2023/09/28 06:27:42;;;;;;;;;;;;;;;;;;5033912;28;19913;-47
2023/09/28 06:30:09;;;;;;;;;;;;;;;;;;5052564;28;19931;-50
2023/09/28 06:32:35;;;;;;;;;;;;;;;;;;5052241;28;19971;-48
2023/09/28 06:35:01;;;;;;;;;;;;;;;;;;5050167;28;20402;-48
2023/09/28 06:37:27;;;;;;;;;;;;;;;;;;5051167;28;19954;-46
2023/09/28 06:39:53;;;;;;;;;;;;;;;;;;5050537;28;19986;-48
2023/09/28 06:42:19;;;;;;;;;;;;;;;;;;5051025;28;19917;-47
2023/09/28 06:44:45;;;;;;;;;;;;;;;;;;5050923;28;19920;-46
2023/09/28 06:47:11;;;;;;;;;;;;;;;;;;5050755;28;20011;-49
2023/09/28 06:49:37;;;;;;;;;;;;;;;;;;5051118;28;20290;-50
2023/09/28 06:52:03;;;;;;;;;;;;;;;;;;5051319;28;20320;-47
2023/09/28 06:54:31;;;;;;;;;;;;;;;;;;5051093;28;20392;-46
2023/09/28 06:56:57;;;;;;;;;;;;;;;;;;5049136;28;19988;-49
2023/09/28 06:59:23;;;;;;;;;;;;;;;;;;5062489;28;19909;-47
2023/09/28 07:01:49;;;;;;;;;;;;;;;;;;5072136;28;20070;-48
2023/09/28 07:04:16;;;;;;;;;;;;;;;;;;5054208;28;20393;-47
2023/09/28 07:06:42;;;;;;;;;;;;;;;;;;5051695;28;20011;-47
2023/09/28 07:09:08;;;;;;;;;;;;;;;;;;5050124;28;20390;-49
2023/09/28 07:11:34;;;;;;;;;;;;;;;;;;5049509;28;19920;-45
2023/09/28 07:14:00;;;;;;;;;;;;;;;;;;5050079;28;19913;-48
2023/09/28 07:16:26;;;;;;;;;;;;;;;;;;5070591;28;19915;-46
2023/09/28 07:18:51;;;;;;;;;;;;;;;;;;5064099;28;19920;-45
2023/09/28 07:21:17;;;;;;;;;;;;;;;;;;5051059;28;20007;-45
2023/09/28 07:23:43;;;;;;;;;;;;;;;;;;5050522;28;19913;-49
2023/09/28 07:26:09;;;;;;;;;;;;;;;;;;5051369;28;19908;-47
2023/09/28 07:28:35;;;;;;;;;;;;;;;;;;5051692;28;19909;-49
2023/09/28 07:31:01;;;;;;;;;;;;;;;;;;5051558;28;20268;-48
2023/09/28 07:33:27;;;;;;;;;;;;;;;;;;5051619;28;19909;-46
2023/09/28 07:35:53;;;;;;;;;;;;;;;;;;5051534;28;20383;-50
2023/09/28 07:38:19;;;;;;;;;;;;;;;;;;5049078;28;20011;-45
2023/09/28 07:40:45;;;;;;;;;;;;;;;;;;5047780;28;19919;-48
2023/09/28 07:43:10;;;;;;;;;;;;;;;;;;5049894;28;19908;-48
2023/09/28 07:45:37;;;;;;;;;;;;;;;;;;5050175;28;20325;-48
2023/09/28 07:48:03;;;;;;;;;;;;;;;;;;5044358;28;20437;-50
2023/09/28 07:50:28;;;;;;;;;;;;;;;;;;5046167;28;20269;-50
2023/09/28 07:52:54;;;;;;;;;;;;;;;;;;5048180;28;20181;-46
2023/09/28 07:55:21;;;;;;;;;;;;;;;;;;5050777;28;20367;-49
2023/09/28 07:57:47;;;;;;;;;;;;;;;;;;5049916;28;20414;-50
2023/09/28 08:00:13;;;;;;;;;;;;;;;;;;5049600;28;19927;-50
2023/09/28 08:02:42;;;;;;;;;;;;;;;;;;5049131;28;20379;-50
2023/09/28 08:05:08;;;;;;;;;;;;;;;;;;5048978;28;19916;-49
2023/09/28 08:07:34;;;;;;;;;;;;;;;;;;5045429;28;20007;-50
2023/09/28 08:10:00;;;;;;;;;;;;;;;;;;5038402;28;19913;-48
2023/09/28 08:12:26;;;;;;;;;;;;;;;;;;5033293;28;19917;-46
2023/09/28 08:14:52;;;;;;;;;;;;;;;;;;5051270;28;19909;-49
2023/09/28 08:17:19;;;;;;;;;;;;;;;;;;5050988;28;20003;-48
2023/09/28 08:19:45;;;;;;;;;;;;;;;;;;5049949;28;20363;-50
2023/09/28 08:22:11;;;;;;;;;;;;;;;;;;5049684;28;19913;-47
2023/09/28 08:24:37;;;;;;;;;;;;;;;;;;5047604;28;20465;-48
2023/09/28 08:27:04;;;;;;;;;;;;;;;;;;5050430;28;19913;-48
2023/09/28 08:29:30;;;;;;;;;;;;;;;;;;5051185;28;19915;-46
2023/09/28 08:31:57;;;;;;;;;;;;;;;;;;5050847;28;19909;-46
2023/09/28 08:34:23;;;;;;;;;;;;;;;;;;5048610;28;19935;-48
2023/09/28 08:36:49;;;;;;;;;;;;;;;;;;5038579;28;19913;-46
2023/09/28 08:39:15;;;;;;;;;;;;;;;;;;5051201;28;19962;-50
2023/09/28 08:41:43;;;;;;;;;;;;;;;;;;5051405;28;19908;-48
2023/09/28 08:44:09;;;;;;;;;;;;;;;;;;5051287;28;19983;-50
2023/09/28 08:46:38;;;;;;;;;;;;;;;;;;5050330;28;19994;-48
2023/09/28 08:49:05;;;;;;;;;;;;;;;;;;5051165;28;19913;-48
2023/09/28 08:51:31;;;;;;;;;;;;;;;;;;5049996;28;19946;-47
2023/09/28 08:53:57;;;;;;;;;;;;;;;;;;5046132;28;19958;-50
2023/09/28 08:56:23;;;;;;;;;;;;;;;;;;5047883;28;19924;-47
2023/09/28 08:58:49;;;;;;;;;;;;;;;;;;5050996;28;19999;-46
2023/09/28 09:01:15;;;;;;;;;;;;;;;;;;5043962;28;19917;-48
2023/09/28 09:03:41;;;;;;;;;;;;;;;;;;5040322;28;19908;-47
2023/09/28 09:06:07;;;;;;;;;;;;;;;;;;5033125;28;20509;-46
2023/09/28 09:08:33;;;;;;;;;;;;;;;;;;5049014;28;20355;-45
2023/09/28 09:11:00;;;;;;;;;;;;;;;;;;5050809;28;19913;-43
2023/09/28 09:13:26;;;;;;;;;;;;;;;;;;5049374;28;20342;-46
2023/09/28 09:15:52;;;;;;;;;;;;;;;;;;5050719;28;19909;-44
2023/09/28 09:18:18;;;;;;;;;;;;;;;;;;5049000;28;20540;-44
2023/09/28 09:20:46;;;;;;;;;;;;;;;;;;5050540;28;20464;-47
2023/09/28 09:23:12;;;;;;;;;;;;;;;;;;5050727;28;19952;-44
2023/09/28 09:25:38;;;;;;;;;;;;;;;;;;5049763;28;19959;-44
2023/09/28 09:28:04;;;;;;;;;;;;;;;;;;5050982;28;19913;-45
2023/09/28 09:30:30;;;;;;;;;;;;;;;;;;5050832;28;19913;-44
2023/09/28 09:32:56;;;;;;;;;;;;;;;;;;5033239;28;20003;-45
2023/09/28 09:35:22;;;;;;;;;;;;;;;;;;5050226;28;19917;-45
2023/09/28 09:37:48;;;;;;;;;;;;;;;;;;5050671;28;19963;-45
2023/09/28 09:40:15;;;;;;;;;;;;;;;;;;5049403;28;19994;-45
2023/09/28 09:42:41;;;;;;;;;;;;;;;;;;5051377;28;20446;-46
2023/09/28 09:45:08;;;;;;;;;;;;;;;;;;5054591;28;20046;-45
2023/09/28 09:47:34;;;;;;;;;;;;;;;;;;5043466;28;19920;-45
2023/09/28 09:50:00;;;;;;;;;;;;;;;;;;5034578;28;19909;-45
2023/09/28 09:52:26;;;;;;;;;;;;;;;;;;5049520;28;19913;-45
2023/09/28 09:54:52;;;;;;;;;;;;;;;;;;5054241;28;19963;-42
2023/09/28 09:57:18;;;;;;;;;;;;;;;;;;5052846;28;20441;-43
2023/09/28 09:59:44;;;;;;;;;;;;;;;;;;5054031;28;19913;-43
2023/09/28 10:02:10;;;;;;;;;;;;;;;;;;5054335;28;19931;-42
2023/09/28 10:04:36;;;;;;;;;;;;;;;;;;5053957;28;20439;-44
2023/09/28 10:07:03;;;;;;;;;;;;;;;;;;5053934;28;19915;-42
2023/09/28 10:09:29;;;;;;;;;;;;;;;;;;5053695;28;20383;-42
2023/09/28 10:11:55;;;;;;;;;;;;;;;;;;5051411;28;19913;-42
2023/09/28 10:14:21;;;;;;;;;;;;;;;;;;5050019;28;19913;-43
2023/09/28 10:16:50;;;;;;;;;;;;;;;;;;5052991;28;19948;-42
2023/09/28 10:19:19;;;;;;;;;;;;;;;;;;5052812;28;19951;-42
2023/09/28 10:21:45;;;;;;;;;;;;;;;;;;5052267;28;19913;-43
2023/09/28 10:24:11;;;;;;;;;;;;;;;;;;5053618;28;19913;-42
2023/09/28 10:26:38;;;;;;;;;;;;;;;;;;5050270;28;19913;-42
2023/09/28 10:29:04;;;;;;;;;;;;;;;;;;5052805;28;19919;-42
2023/09/28 10:31:30;;;;;;;;;;;;;;;;;;5051392;28;19917;-42
2023/09/28 10:33:56;;;;;;;;;;;;;;;;;;5051498;28;19999;-42
2023/09/28 10:36:22;;;;;;;;;;;;;;;;;;5051810;28;19919;-42
2023/09/28 10:38:48;;;;;;;;;;;;;;;;;;5051473;28;19917;-42
2023/09/28 10:41:15;;;;;;;;;;;;;;;;;;5051045;28;19939;-43
2023/09/28 10:43:41;;;;;;;;;;;;;;;;;;5037202;28;19967;-43
2023/09/28 10:46:07;;;;;;;;;;;;;;;;;;5033530;28;19917;-44
2023/09/28 10:48:33;;;;;;;;;;;;;;;;;;5025008;28;20386;-46
2023/09/28 10:51:01;;;;;;;;;;;;;;;;;;5046683;28;19921;-43
2023/09/28 10:53:27;;;;;;;;;;;;;;;;;;5050844;28;19920;-46
2023/09/28 10:55:53;;;;;;;;;;;;;;;;;;5048666;28;19913;-44
2023/09/28 10:58:19;;;;;;;;;;;;;;;;;;5050907;28;19956;-46
2023/09/28 11:00:45;;;;;;;;;;;;;;;;;;5051490;28;19913;-44
2023/09/28 11:03:11;;;;;;;;;;;;;;;;;;5049558;28;19912;-44
2023/09/28 11:05:38;;;;;;;;;;;;;;;;;;5050155;28;19913;-45
2023/09/28 11:08:05;;;;;;;;;;;;;;;;;;5050330;28;19944;-43
2023/09/28 11:10:31;;;;;;;;;;;;;;;;;;5051891;28;19963;-44
2023/09/28 11:12:57;;;;;;;;;;;;;;;;;;5051412;28;19920;-44
2023/09/28 11:15:24;;;;;;;;;;;;;;;;;;5048203;28;19912;-43
2023/09/28 11:17:50;;;;;;;;;;;;;;;;;;5049686;28;20413;-45
2023/09/28 11:20:16;;;;;;;;;;;;;;;;;;5043870;28;19932;-44
2023/09/28 11:22:42;;;;;;;;;;;;;;;;;;5050573;28;19912;-43
2023/09/28 11:25:09;;;;;;;;;;;;;;;;;;5049928;28;19916;-46
2023/09/28 11:27:35;;;;;;;;;;;;;;;;;;5050817;28;19916;-44
2023/09/28 11:30:02;;;;;;;;;;;;;;;;;;5029990;28;19939;-45
2023/09/28 11:32:29;;;;;;;;;;;;;;;;;;5049872;28;20398;-43
2023/09/28 11:34:55;;;;;;;;;;;;;;;;;;5049211;28;19920;-44
2023/09/28 11:37:23;;;;;;;;;;;;;;;;;;5049025;28;19999;-43
2023/09/28 11:39:49;;;;;;;;;;;;;;;;;;5049669;28;19909;-43
2023/09/28 11:42:15;;;;;;;;;;;;;;;;;;5049848;28;19955;-43
2023/09/28 11:44:41;;;;;;;;;;;;;;;;;;5049242;28;19956;-43
2023/09/28 11:47:07;;;;;;;;;;;;;;;;;;5048856;28;20548;-44
2023/09/28 11:49:37;;;;;;;;;;;;;;;;;;5049389;28;19916;-43
2023/09/28 11:52:03;;;;;;;;;;;;;;;;;;5047017;28;20268;-43
2023/09/28 11:54:29;;;;;;;;;;;;;;;;;;5048313;28;19975;-44
2023/09/28 11:56:55;;;;;;;;;;;;;;;;;;5048822;28;20359;-43
2023/09/28 11:59:21;;;;;;;;;;;;;;;;;;5048352;28;19979;-43
2023/09/28 12:01:51;;;;;;;;;;;;;;;;;;5046060;28;19912;-44
2023/09/28 12:04:17;;;;;;;;;;;;;;;;;;5048414;28;20289;-44
2023/09/28 12:06:43;;;;;;;;;;;;;;;;;;5046521;28;19920;-44
2023/09/28 12:09:10;;;;;;;;;;;;;;;;;;5047241;28;20325;-44
2023/09/28 12:11:37;;;;;;;;;;;;;;;;;;5046807;28;20087;-45
2023/09/28 12:14:03;;;;;;;;;;;;;;;;;;5028508;28;19920;-45
2023/09/28 12:16:29;;;;;;;;;;;;;;;;;;5046298;28;19909;-45
2023/09/28 12:18:56;;;;;;;;;;;;;;;;;;5046910;28;19916;-46
2023/09/28 12:21:22;;;;;;;;;;;;;;;;;;5046248;28;19909;-44
2023/09/28 12:23:48;;;;;;;;;;;;;;;;;;5045476;28;19916;-44
2023/09/28 12:26:15;;;;;;;;;;;;;;;;;;5046249;28;19913;-45
2023/09/28 12:28:41;;;;;;;;;;;;;;;;;;5046206;28;20003;-47
2023/09/28 12:31:08;;;;;;;;;;;;;;;;;;5045918;28;20371;-44
2023/09/28 12:33:34;;;;;;;;;;;;;;;;;;5046111;28;19923;-47
2023/09/28 12:36:00;;;;;;;;;;;;;;;;;;5045423;28;19913;-44
2023/09/28 12:38:26;;;;;;;;;;;;;;;;;;5047419;28;20284;-45
2023/09/28 12:40:53;;;;;;;;;;;;;;;;;;5046285;28;20383;-47
2023/09/28 12:43:20;;;;;;;;;;;;;;;;;;5028558;28;19956;-44
2023/09/28 12:45:46;;;;;;;;;;;;;;;;;;5045430;28;19917;-47
2023/09/28 12:48:17;;;;;;;;;;;;;;;;;;5046324;28;19909;-46
2023/09/28 12:50:43;;;;;;;;;;;;;;;;;;5045349;28;19920;-48
2023/09/28 12:53:09;;;;;;;;;;;;;;;;;;5046216;28;19996;-44
2023/09/28 12:55:36;;;;;;;;;;;;;;;;;;5028657;28;20007;-47
2023/09/28 12:58:02;;;;;;;;;;;;;;;;;;5045946;28;20296;-45
2023/09/28 13:00:29;;;;;;;;;;;;;;;;;;5045344;28;20442;-45
2023/09/28 13:02:55;;;;;;;;;;;;;;;;;;5046366;28;19955;-46
2023/09/28 13:05:21;;;;;;;;;;;;;;;;;;5028181;28;19974;-46
2023/09/28 13:07:48;;;;;;;;;;;;;;;;;;5044669;28;19917;-47
2023/09/28 13:10:21;;;;;;;;;;;;;;;;;;5046139;28;19912;-47
2023/09/28 13:12:49;;;;;;;;;;;;;;;;;;5044408;28;19909;-45
2023/09/28 13:15:14;;;;;;;;;;;;;;;;;;5045338;28;20007;-44
2023/09/28 13:17:40;;;;;;;;;;;;;;;;;;5046467;28;20044;-45
2023/09/28 13:20:10;;;;;;;;;;;;;;;;;;5047348;28;19928;-46
2023/09/28 13:22:36;;;;;;;;;;;;;;;;;;5051582;28;20026;-44
2023/09/28 13:25:04;;;;;;;;;;;;;;;;;;5051128;28;20287;-44
2023/09/28 13:27:30;;;;;;;;;;;;;;;;;;5051184;28;21131;-46
2023/09/28 13:29:58;;;;;;;;;;;;;;;;;;5050984;28;20292;-48
2023/09/28 13:32:27;;;;;;;;;;;;;;;;;;5051462;28;20232;-45
2023/09/28 13:34:53;;;;;;;;;;;;;;;;;;5050879;28;19970;-48
2023/09/28 13:37:19;;;;;;;;;;;;;;;;;;5049465;28;20399;-46
2023/09/28 13:39:45;;;;;;;;;;;;;;;;;;5049757;28;20007;-45
2023/09/28 13:42:11;;;;;;;;;;;;;;;;;;5050523;28;19913;-47
2023/09/28 13:44:39;;;;;;;;;;;;;;;;;;5050931;28;19924;-45
2023/09/28 13:47:06;;;;;;;;;;;;;;;;;;5050256;28;19913;-45
2023/09/28 13:49:32;;;;;;;;;;;;;;;;;;5050647;28;20276;-47
2023/09/28 13:51:58;;;;;;;;;;;;;;;;;;5050700;28;19916;-48
2023/09/28 13:54:24;;;;;;;;;;;;;;;;;;5050731;28;19909;-45
2023/09/28 13:56:49;;;;;;;;;;;;;;;;;;5050248;28;19965;-47
2023/09/28 13:59:15;;;;;;;;;;;;;;;;;;5050458;28;19904;-46
2023/09/28 14:01:43;;;;;;;;;;;;;;;;;;5050370;28;19916;-46
2023/09/28 14:04:10;;;;;;;;;;;;;;;;;;5051015;28;19959;-45
2023/09/28 14:06:36;;;;;;;;;;;;;;;;;;5050211;28;19909;-44
2023/09/28 14:09:02;;;;;;;;;;;;;;;;;;5050306;28;20170;-45
2023/09/28 14:11:29;;;;;;;;;;;;;;;;;;5050061;28;19916;-46
2023/09/28 14:13:56;;;;;;;;;;;;;;;;;;5049362;28;20091;-45
2023/09/28 14:16:22;;;;;;;;;;;;;;;;;;5050052;28;20011;-47
2023/09/28 14:18:48;;;;;;;;;;;;;;;;;;5050026;28;20007;-44
2023/09/28 14:21:14;;;;;;;;;;;;;;;;;;5050106;28;19909;-44
2023/09/28 14:23:40;;;;;;;;;;;;;;;;;;5050794;28;19905;-43
2023/09/28 14:26:06;;;;;;;;;;;;;;;;;;5048651;28;19924;-44
2023/09/28 14:28:32;;;;;;;;;;;;;;;;;;5048611;28;20005;-44
2023/09/28 14:30:58;;;;;;;;;;;;;;;;;;5049674;28;19915;-46
2023/09/28 14:33:24;;;;;;;;;;;;;;;;;;5050141;28;20003;-47
2023/09/28 14:35:52;;;;;;;;;;;;;;;;;;5049637;28;20011;-47
2023/09/28 14:38:18;;;;;;;;;;;;;;;;;;5049490;28;19955;-44
2023/09/28 14:40:44;;;;;;;;;;;;;;;;;;5050540;28;19913;-47
2023/09/28 14:43:10;;;;;;;;;;;;;;;;;;5050141;28;19913;-46
2023/09/28 14:45:36;;;;;;;;;;;;;;;;;;5031692;28;20007;-46
2023/09/28 14:48:02;;;;;;;;;;;;;;;;;;5049276;28;20335;-44
2023/09/28 14:50:27;;;;;;;;;;;;;;;;;;5049417;28;19913;-44
2023/09/28 14:52:54;;;;;;;;;;;;;;;;;;5049411;28;20333;-46
2023/09/28 14:55:20;;;;;;;;;;;;;;;;;;5048688;28;20398;-44
2023/09/28 14:57:46;;;;;;;;;;;;;;;;;;5031052;28;20331;-47
2023/09/28 15:00:12;;;;;;;;;;;;;;;;;;5049868;28;19920;-45
2023/09/28 15:02:39;;;;;;;;;;;;;;;;;;5048025;28;19924;-45
2023/09/28 15:05:05;;;;;;;;;;;;;;;;;;5049572;28;19978;-46
2023/09/28 15:07:31;;;;;;;;;;;;;;;;;;5047967;28;20287;-48
2023/09/28 15:09:58;;;;;;;;;;;;;;;;;;5044380;28;19991;-43
2023/09/28 15:12:23;;;;;;;;;;;;;;;;;;5045825;28;20003;-46
2023/09/28 15:14:49;;;;;;;;;;;;;;;;;;5051864;28;19909;-46
2023/09/28 15:17:15;;;;;;;;;;;;;;;;;;5032479;28;19908;-47
2023/09/28 15:19:41;;;;;;;;;;;;;;;;;;5028608;28;20042;-46
2023/09/28 15:22:07;;;;;;;;;;;;;;;;;;5038756;28;19917;-44
2023/09/28 15:24:33;;;;;;;;;;;;;;;;;;5048663;28;19964;-45
2023/09/28 15:26:59;;;;;;;;;;;;;;;;;;5048797;28;20376;-44
2023/09/28 15:29:26;;;;;;;;;;;;;;;;;;5049754;28;19916;-44
2023/09/28 15:31:52;;;;;;;;;;;;;;;;;;5049737;28;19913;-43
2023/09/28 15:34:19;;;;;;;;;;;;;;;;;;5050063;28;19913;-44
2023/09/28 15:36:45;;;;;;;;;;;;;;;;;;5049649;28;20011;-44
2023/09/28 15:39:12;;;;;;;;;;;;;;;;;;5049696;28;19917;-44
2023/09/28 15:41:38;;;;;;;;;;;;;;;;;;5044886;28;19951;-47
2023/09/28 15:44:04;;;;;;;;;;;;;;;;;;5049539;28;19964;-45
2023/09/28 15:46:30;;;;;;;;;;;;;;;;;;5048287;28;19952;-44
2023/09/28 15:48:56;;;;;;;;;;;;;;;;;;5050064;28;19909;-46
2023/09/28 15:51:22;;;;;;;;;;;;;;;;;;5031482;28;20449;-44
2023/09/28 15:53:48;;;;;;;;;;;;;;;;;;5048352;28;19924;-45
2023/09/28 15:56:14;;;;;;;;;;;;;;;;;;5050191;28;19912;-45
2023/09/28 15:58:40;;;;;;;;;;;;;;;;;;5049797;28;19912;-47
2023/09/28 16:01:06;;;;;;;;;;;;;;;;;;5049380;28;19913;-44
2023/09/28 16:03:32;;;;;;;;;;;;;;;;;;5050135;28;20435;-43
2023/09/28 16:05:58;;;;;;;;;;;;;;;;;;5049999;28;19913;-43
2023/09/28 16:08:24;;;;;;;;;;;;;;;;;;5029662;28;19916;-45
2023/09/28 16:10:50;;;;;;;;;;;;;;;;;;5049283;28;20023;-48
2023/09/28 16:13:15;;;;;;;;;;;;;;;;;;5048364;28;20003;-45
2023/09/28 16:15:42;;;;;;;;;;;;;;;;;;5047544;28;19916;-45
2023/09/28 16:18:07;;;;;;;;;;;;;;;;;;5048737;28;19920;-44
2023/09/28 16:20:35;;;;;;;;;;;;;;;;;;5048018;28;19921;-43
2023/09/28 16:23:00;;;;;;;;;;;;;;;;;;5052894;28;20433;-46
2023/09/28 16:25:26;;;;;;;;;;;;;;;;;;5055868;28;19913;-44
2023/09/28 16:27:52;;;;;;;;;;;;;;;;;;5048487;28;19909;-45
2023/09/28 16:30:19;;;;;;;;;;;;;;;;;;5048510;28;19916;-44
2023/09/28 16:32:44;;;;;;;;;;;;;;;;;;5047365;28;19913;-43
2023/09/28 16:35:10;;;;;;;;;;;;;;;;;;5046321;28;20067;-48
2023/09/28 16:37:36;;;;;;;;;;;;;;;;;;5047217;28;19932;-44
2023/09/28 16:40:02;;;;;;;;;;;;;;;;;;5049141;28;19959;-45
2023/09/28 16:42:28;;;;;;;;;;;;;;;;;;5049084;28;19908;-44
2023/09/28 16:44:54;;;;;;;;;;;;;;;;;;5049892;28;19921;-46
2023/09/28 16:47:20;;;;;;;;;;;;;;;;;;5048813;28;19909;-45
2023/09/28 16:49:46;;;;;;;;;;;;;;;;;;5049630;28;19912;-46
2023/09/28 16:52:12;;;;;;;;;;;;;;;;;;5048544;28;20422;-45
2023/09/28 16:54:38;;;;;;;;;;;;;;;;;;5049572;28;19936;-46
2023/09/28 16:57:04;;;;;;;;;;;;;;;;;;5048625;28;19951;-46
2023/09/28 16:59:29;;;;;;;;;;;;;;;;;;5056685;28;19974;-43
2023/09/28 17:01:55;;;;;;;;;;;;;;;;;;5050188;28;19936;-47
2023/09/28 17:04:21;;;;;;;;;;;;;;;;;;5048149;28;19963;-46
2023/09/28 17:06:47;;;;;;;;;;;;;;;;;;5045695;28;20575;-44
2023/09/28 17:09:13;;;;;;;;;;;;;;;;;;5048423;28;19939;-46
2023/09/28 17:11:39;;;;;;;;;;;;;;;;;;5049335;28;20311;-45
2023/09/28 17:14:05;;;;;;;;;;;;;;;;;;5047947;28;19977;-44
2023/09/28 17:16:31;;;;;;;;;;;;;;;;;;5045809;28;20611;-45
2023/09/28 17:18:58;;;;;;;;;;;;;;;;;;5046366;28;19916;-44
2023/09/28 17:21:26;;;;;;;;;;;;;;;;;;5044849;28;20211;-45
2023/09/28 17:23:52;;;;;;;;;;;;;;;;;;5048511;28;19909;-44
2023/09/28 17:26:18;;;;;;;;;;;;;;;;;;5047688;28;19917;-44
2023/09/28 17:28:43;;;;;;;;;;;;;;;;;;5047347;28;19912;-46
2023/09/28 17:31:09;;;;;;;;;;;;;;;;;;5045054;28;19913;-45
2023/09/28 17:33:35;;;;;;;;;;;;;;;;;;5047388;28;19913;-47
2023/09/28 17:36:01;;;;;;;;;;;;;;;;;;5046415;28;19947;-45
2023/09/28 17:38:27;;;;;;;;;;;;;;;;;;5048034;28;19913;-44
2023/09/28 17:40:53;;;;;;;;;;;;;;;;;;5046936;28;19917;-43
2023/09/28 17:43:19;;;;;;;;;;;;;;;;;;5047941;28;19916;-44
2023/09/28 17:45:47;;;;;;;;;;;;;;;;;;5047768;28;20007;-43
2023/09/28 17:48:13;;;;;;;;;;;;;;;;;;5047058;28;20030;-46
2023/09/28 17:50:39;;;;;;;;;;;;;;;;;;5037837;28;19963;-44
2023/09/28 17:53:05;;;;;;;;;;;;;;;;;;5028004;28;19909;-43
2023/09/28 17:55:31;;;;;;;;;;;;;;;;;;5028097;28;19905;-43
2023/09/28 17:57:57;;;;;;;;;;;;;;;;;;5010701;28;19916;-43
2023/09/28 18:00:22;;;;;;;;;;;;;;;;;;5038977;28;19959;-47
2023/09/28 18:02:49;;;;;;;;;;;;;;;;;;5047709;28;20008;-43
2023/09/28 18:05:15;;;;;;;;;;;;;;;;;;5050698;28;19924;-45
2023/09/28 18:07:40;;;;;;;;;;;;;;;;;;5050390;28;19913;-43
2023/09/28 18:10:06;;;;;;;;;;;;;;;;;;5049539;28;19917;-44
2023/09/28 18:12:32;;;;;;;;;;;;;;;;;;5051426;28;19909;-43
2023/09/28 18:14:58;;;;;;;;;;;;;;;;;;5051354;28;19908;-43
2023/09/28 18:17:24;;;;;;;;;;;;;;;;;;5051699;28;19919;-43
2023/09/28 18:19:50;;;;;;;;;;;;;;;;;;5049236;28;19987;-43
2023/09/28 18:22:16;;;;;;;;;;;;;;;;;;5045199;28;20380;-46
2023/09/28 18:24:42;;;;;;;;;;;;;;;;;;5036206;28;20383;-44
2023/09/28 18:27:07;;;;;;;;;;;;;;;;;;5045517;28;19920;-43
2023/09/28 18:29:33;;;;;;;;;;;;;;;;;;5047136;28;19955;-44
2023/09/28 18:32:01;;;;;;;;;;;;;;;;;;5046941;28;19927;-46
2023/09/28 18:34:28;;;;;;;;;;;;;;;;;;5046601;28;19974;-43
2023/09/28 18:36:54;;;;;;;;;;;;;;;;;;5047041;28;19913;-43
2023/09/28 18:39:20;;;;;;;;;;;;;;;;;;5046667;28;19913;-42
2023/09/28 18:41:49;;;;;;;;;;;;;;;;;;5048736;28;19916;-44
2023/09/28 18:44:15;;;;;;;;;;;;;;;;;;5048204;28;19913;-45
2023/09/28 18:46:41;;;;;;;;;;;;;;;;;;5047600;28;19917;-45
2023/09/28 18:49:06;;;;;;;;;;;;;;;;;;5047066;28;19913;-43
2023/09/28 18:51:32;;;;;;;;;;;;;;;;;;5058934;28;20578;-43
2023/09/28 18:54:00;;;;;;;;;;;;;;;;;;5050129;28;20327;-43
2023/09/28 18:56:27;;;;;;;;;;;;;;;;;;5061223;28;20383;-44
2023/09/28 18:58:52;;;;;;;;;;;;;;;;;;5036817;28;20208;-44
2023/09/28 19:01:18;;;;;;;;;;;;;;;;;;5047798;28;19956;-45
2023/09/28 19:03:44;;;;;;;;;;;;;;;;;;5065676;28;20003;-43
2023/09/28 19:06:10;;;;;;;;;;;;;;;;;;5044144;28;20031;-43
2023/09/28 19:08:36;;;;;;;;;;;;;;;;;;5048870;28;20042;-42
2023/09/28 19:11:02;;;;;;;;;;;;;;;;;;5048487;28;19909;-44
2023/09/28 19:13:28;;;;;;;;;;;;;;;;;;5047914;28;20295;-43
2023/09/28 19:15:54;;;;;;;;;;;;;;;;;;5048146;28;19991;-44
2023/09/28 19:18:23;;;;;;;;;;;;;;;;;;5045792;28;19912;-45
2023/09/28 19:20:49;;;;;;;;;;;;;;;;;;5048194;28;20375;-46
2023/09/28 19:23:15;;;;;;;;;;;;;;;;;;5047387;28;19916;-45
2023/09/28 19:25:42;;;;;;;;;;;;;;;;;;5048093;28;20015;-42
2023/09/28 19:28:10;;;;;;;;;;;;;;;;;;5045527;28;20395;-44
2023/09/28 19:30:36;;;;;;;;;;;;;;;;;;5015529;28;19988;-46
2023/09/28 19:33:03;;;;;;;;;;;;;;;;;;5047472;28;19924;-44
2023/09/28 19:35:29;;;;;;;;;;;;;;;;;;5047732;28;19909;-46
2023/09/28 19:37:55;;;;;;;;;;;;;;;;;;5046282;28;19913;-49
2023/09/28 19:40:21;;;;;;;;;;;;;;;;;;5042899;28;19917;-48
2023/09/28 19:42:47;;;;;;;;;;;;;;;;;;5042988;28;20384;-48
2023/09/28 19:45:13;;;;;;;;;;;;;;;;;;5047504;28;19913;-47
2023/09/28 19:47:39;;;;;;;;;;;;;;;;;;5045348;28;19920;-47
2023/09/28 19:50:04;;;;;;;;;;;;;;;;;;5044170;28;20434;-49
2023/09/28 19:52:34;;;;;;;;;;;;;;;;;;5044843;28;20280;-50
2023/09/28 19:54:59;;;;;;;;;;;;;;;;;;5028765;28;19915;-50
2023/09/28 19:57:26;;;;;;;;;;;;;;;;;;5045132;28;19913;-48
2023/09/28 19:59:52;;;;;;;;;;;;;;;;;;5045505;28;20349;-49
2023/09/28 20:02:18;;;;;;;;;;;;;;;;;;5045756;28;19916;-48
2023/09/28 20:04:44;;;;;;;;;;;;;;;;;;5047210;28;20378;-46
2023/09/28 20:07:10;;;;;;;;;;;;;;;;;;5046513;28;19979;-48
2023/09/28 20:09:36;;;;;;;;;;;;;;;;;;5029131;28;19908;-47
2023/09/28 20:12:02;;;;;;;;;;;;;;;;;;5046298;28;19963;-46
2023/09/28 20:14:28;;;;;;;;;;;;;;;;;;5046684;28;19966;-45
2023/09/28 20:16:54;;;;;;;;;;;;;;;;;;5046884;28;19908;-47
2023/09/28 20:19:20;;;;;;;;;;;;;;;;;;5044521;28;19924;-46
2023/09/28 20:21:46;;;;;;;;;;;;;;;;;;5044772;28;19913;-47
2023/09/28 20:24:12;;;;;;;;;;;;;;;;;;5041630;28;20276;-45
2023/09/28 20:26:38;;;;;;;;;;;;;;;;;;5044867;28;19948;-49
2023/09/28 20:29:04;;;;;;;;;;;;;;;;;;5052172;28;20383;-46
2023/09/28 20:31:30;;;;;;;;;;;;;;;;;;5046689;28;19916;-46
2023/09/28 20:33:56;;;;;;;;;;;;;;;;;;5046852;28;19924;-46
2023/09/28 20:36:22;;;;;;;;;;;;;;;;;;5045534;28;19920;-48
2023/09/28 20:38:48;;;;;;;;;;;;;;;;;;5045812;28;19916;-45
2023/09/28 20:41:14;;;;;;;;;;;;;;;;;;5043108;28;20007;-49
2023/09/28 20:43:40;;;;;;;;;;;;;;;;;;5046489;28;19941;-45
2023/09/28 20:46:09;;;;;;;;;;;;;;;;;;5046180;28;19983;-48
2023/09/28 20:48:35;;;;;;;;;;;;;;;;;;5045394;28;19919;-46
2023/09/28 20:51:01;;;;;;;;;;;;;;;;;;5044927;28;20403;-46
2023/09/28 20:53:27;;;;;;;;;;;;;;;;;;5028459;28;19913;-46
2023/09/28 20:55:53;;;;;;;;;;;;;;;;;;5030451;28;20063;-45
2023/09/28 20:58:19;;;;;;;;;;;;;;;;;;5043982;28;19913;-49
2023/09/28 21:00:45;;;;;;;;;;;;;;;;;;5044056;28;19921;-45
2023/09/28 21:03:12;;;;;;;;;;;;;;;;;;5045328;28;20388;-47
2023/09/28 21:05:38;;;;;;;;;;;;;;;;;;5046657;28;19974;-48
2023/09/28 21:08:04;;;;;;;;;;;;;;;;;;5045649;28;19913;-50
2023/09/28 21:10:30;;;;;;;;;;;;;;;;;;5045557;28;19960;-49
2023/09/28 21:12:56;;;;;;;;;;;;;;;;;;5046677;28;20327;-48
2023/09/28 21:15:21;;;;;;;;;;;;;;;;;;5045818;28;19913;-48
2023/09/28 21:17:47;;;;;;;;;;;;;;;;;;5045818;28;19916;-48
2023/09/28 21:20:14;;;;;;;;;;;;;;;;;;5045968;28;19988;-45
2023/09/28 21:22:40;;;;;;;;;;;;;;;;;;5045923;28;19913;-46
2023/09/28 21:25:06;;;;;;;;;;;;;;;;;;5045793;28;19913;-48
2023/09/28 21:27:33;;;;;;;;;;;;;;;;;;5045843;28;20011;-46
2023/09/28 21:29:59;;;;;;;;;;;;;;;;;;5046591;28;19952;-45
2023/09/28 21:32:25;;;;;;;;;;;;;;;;;;5045379;28;19952;-47
2023/09/28 21:34:51;;;;;;;;;;;;;;;;;;5046019;28;19948;-50
2023/09/28 21:37:17;;;;;;;;;;;;;;;;;;5045463;28;19936;-50
2023/09/28 21:39:43;;;;;;;;;;;;;;;;;;5049301;28;20341;-45
2023/09/28 21:42:09;;;;;;;;;;;;;;;;;;5049394;28;19983;-46
2023/09/28 21:44:35;;;;;;;;;;;;;;;;;;5049689;28;20375;-50
2023/09/28 21:47:01;;;;;;;;;;;;;;;;;;5049884;28;19912;-50
2023/09/28 21:49:27;;;;;;;;;;;;;;;;;;5050437;28;19955;-49
2023/09/28 21:51:53;;;;;;;;;;;;;;;;;;5049573;28;19980;-49
2023/09/28 21:54:18;;;;;;;;;;;;;;;;;;5049589;28;20325;-45
2023/09/28 21:56:44;;;;;;;;;;;;;;;;;;5031498;28;19908;-49